createdAt,value
2023-03-15T00:01:14.770Z,13.40
2023-03-15T00:03:41.929Z,13.40
2023-03-15T00:06:08.985Z,13.40
2023-03-15T00:08:35.735Z,13.50
2023-03-15T00:11:02.620Z,13.40
2023-03-15T00:13:30.015Z,13.40
2023-03-15T00:15:58.090Z,13.40
2023-03-15T00:18:25.236Z,13.40
2023-03-15T00:20:52.036Z,13.30
2023-03-15T00:23:18.869Z,13.40
2023-03-15T00:25:46.121Z,13.40
2023-03-15T00:28:12.816Z,13.40
2023-03-15T00:30:39.588Z,13.30
2023-03-15T00:33:06.551Z,13.40
2023-03-15T00:35:34.047Z,13.30
2023-03-15T00:38:00.883Z,13.30
2023-03-15T00:40:27.754Z,13.30
2023-03-15T00:42:54.495Z,13.30
2023-03-15T00:45:21.799Z,13.30
2023-03-15T00:47:49.188Z,13.30
2023-03-15T00:50:15.969Z,13.30
2023-03-15T00:52:43.047Z,13.30
2023-03-15T00:55:13.588Z,13.30
2023-03-15T00:57:41.265Z,13.30
2023-03-15T01:00:12.580Z,13.30
2023-03-15T01:02:39.552Z,13.30
2023-03-15T01:05:07.609Z,13.30
2023-03-15T01:07:34.711Z,13.30
2023-03-15T01:10:02.083Z,13.30
2023-03-15T01:12:29.509Z,13.30
2023-03-15T01:14:56.594Z,13.30
2023-03-15T01:17:23.453Z,13.30
2023-03-15T01:19:51.641Z,13.30
2023-03-15T01:22:18.785Z,13.30
2023-03-15T01:24:45.585Z,13.30
2023-03-15T01:27:12.439Z,13.30
2023-03-15T01:29:39.164Z,13.30
2023-03-15T01:32:06.227Z,13.30
2023-03-15T01:34:33.031Z,13.30
2023-03-15T01:36:59.848Z,13.30
2023-03-15T01:39:26.692Z,13.30
2023-03-15T01:41:53.428Z,13.30
2023-03-15T01:44:20.871Z,13.30
2023-03-15T01:46:47.766Z,13.30
2023-03-15T01:49:17.671Z,13.30
2023-03-15T01:51:47.176Z,13.20
2023-03-15T01:54:13.914Z,13.20
2023-03-15T01:56:42.551Z,13.20
2023-03-15T01:59:11.845Z,13.20
2023-03-15T02:01:39.506Z,13.20
2023-03-15T02:04:10.796Z,13.20
2023-03-15T02:06:37.809Z,13.20
2023-03-15T02:09:06.624Z,13.20
2023-03-15T02:11:34.318Z,13.20
2023-03-15T02:14:02.456Z,13.20
2023-03-15T02:16:30.010Z,13.20
2023-03-15T02:18:56.748Z,13.20
2023-03-15T02:21:35.950Z,13.30
2023-03-15T02:24:21.341Z,13.20
2023-03-15T02:26:53.805Z,13.20
2023-03-15T02:29:30.137Z,13.20
2023-03-15T02:31:57.948Z,13.20
2023-03-15T02:34:25.512Z,13.20
2023-03-15T02:36:52.599Z,13.20
2023-03-15T02:39:20.884Z,13.20
2023-03-15T02:41:55.411Z,13.20
2023-03-15T02:44:28.726Z,13.20
2023-03-15T02:46:57.422Z,13.20
2023-03-15T02:49:25.941Z,13.20
2023-03-15T02:51:52.731Z,13.10
2023-03-15T02:54:19.468Z,13.10
2023-03-15T02:56:46.215Z,13.10
2023-03-15T02:59:12.974Z,13.10
2023-03-15T03:01:40.044Z,13.10
2023-03-15T03:04:06.968Z,13.10
2023-03-15T03:06:33.901Z,13.10
2023-03-15T03:09:04.481Z,13.10
2023-03-15T03:11:31.555Z,13.10
2023-03-15T03:13:58.417Z,13.10
2023-03-15T03:16:25.214Z,13.10
2023-03-15T03:18:52.055Z,13.10
2023-03-15T03:21:18.925Z,13.10
2023-03-15T03:23:46.313Z,13.10
2023-03-15T03:26:16.733Z,13.10
2023-03-15T03:28:45.156Z,13.10
2023-03-15T03:31:22.330Z,13.10
2023-03-15T03:33:49.170Z,13.00
2023-03-15T03:36:15.981Z,13.10
2023-03-15T03:38:43.556Z,13.00
2023-03-15T03:41:10.954Z,13.00
2023-03-15T03:43:37.774Z,13.00
2023-03-15T03:46:04.775Z,13.00
2023-03-15T03:48:31.615Z,13.00
2023-03-15T03:50:58.971Z,13.00
2023-03-15T03:53:25.808Z,13.00
2023-03-15T03:55:54.554Z,12.90
2023-03-15T03:58:21.482Z,12.90
2023-03-15T04:00:48.350Z,12.90
2023-03-15T04:03:15.122Z,12.90
2023-03-15T04:05:42.009Z,12.90
2023-03-15T04:08:08.720Z,12.90
2023-03-15T04:10:35.595Z,12.90
2023-03-15T04:13:03.269Z,12.90
2023-03-15T04:15:31.505Z,12.90
2023-03-15T04:17:58.488Z,12.90
2023-03-15T04:20:25.849Z,12.90
2023-03-15T04:22:52.769Z,12.90
2023-03-15T04:25:20.511Z,12.90
2023-03-15T04:27:58.654Z,12.90
2023-03-15T04:30:27.218Z,12.90
2023-03-15T04:32:59.047Z,12.90
2023-03-15T04:35:26.752Z,12.90
2023-03-15T04:37:53.732Z,12.90
2023-03-15T04:40:24.070Z,12.90
2023-03-15T04:42:51.398Z,12.90
2023-03-15T04:45:18.523Z,12.90
2023-03-15T04:47:45.282Z,12.90
2023-03-15T04:50:13.428Z,12.90
2023-03-15T04:52:40.324Z,13.00
2023-03-15T04:55:07.195Z,13.00
2023-03-15T04:57:33.917Z,13.00
2023-03-15T05:00:00.918Z,13.00
2023-03-15T05:02:27.644Z,12.90
2023-03-15T05:04:54.331Z,13.00
2023-03-15T05:07:21.062Z,13.00
2023-03-15T05:09:48.088Z,13.00
2023-03-15T05:12:14.850Z,13.00
2023-03-15T05:14:41.670Z,13.00
2023-03-15T05:17:08.428Z,13.00
2023-03-15T05:19:35.307Z,13.00
2023-03-15T05:22:02.567Z,13.00
2023-03-15T05:24:29.436Z,12.90
2023-03-15T05:26:56.569Z,12.90
2023-03-15T05:29:23.506Z,12.90
2023-03-15T05:31:52.312Z,12.90
2023-03-15T05:34:19.351Z,12.90
2023-03-15T05:36:46.170Z,12.90
2023-03-15T05:39:16.708Z,12.90
2023-03-15T05:41:43.467Z,12.90
2023-03-15T05:44:10.411Z,12.90
2023-03-15T05:46:37.194Z,12.90
2023-03-15T05:49:04.407Z,12.90
2023-03-15T05:51:31.151Z,12.90
2023-03-15T05:53:57.875Z,12.90
2023-03-15T05:56:24.670Z,12.80
2023-03-15T05:58:51.641Z,12.90
2023-03-15T06:01:18.393Z,12.80
2023-03-15T06:03:45.159Z,12.80
2023-03-15T06:06:11.977Z,12.80
2023-03-15T06:08:38.678Z,12.80
2023-03-15T06:11:05.455Z,12.90
2023-03-15T06:13:32.298Z,12.90
2023-03-15T06:15:59.061Z,12.90
2023-03-15T06:18:25.790Z,12.90
2023-03-15T06:20:52.600Z,13.00
2023-03-15T06:23:19.385Z,13.00
2023-03-15T06:25:46.883Z,13.10
2023-03-15T06:28:13.767Z,13.00
2023-03-15T06:30:41.104Z,13.10
2023-03-15T06:33:07.887Z,13.00
2023-03-15T06:35:34.776Z,13.10
2023-03-15T06:38:01.504Z,13.10
2023-03-15T06:40:28.232Z,13.10
2023-03-15T06:42:54.985Z,13.10
2023-03-15T06:45:21.671Z,13.10
2023-03-15T06:47:48.426Z,13.10
2023-03-15T06:50:15.267Z,13.20
2023-03-15T06:52:42.025Z,13.20
2023-03-15T06:55:10.266Z,13.20
2023-03-15T06:57:37.188Z,13.20
2023-03-15T07:00:07.952Z,13.20
2023-03-15T07:02:37.730Z,13.20
2023-03-15T07:05:04.888Z,13.20
2023-03-15T07:07:31.658Z,13.20
2023-03-15T07:09:58.462Z,13.30
2023-03-15T07:12:25.212Z,13.30
2023-03-15T07:14:51.979Z,13.30
2023-03-15T07:17:18.706Z,13.30
2023-03-15T07:19:55.807Z,13.30
2023-03-15T07:22:23.613Z,13.30
2023-03-15T07:24:51.260Z,13.30
2023-03-15T07:27:19.444Z,13.30
2023-03-15T07:29:46.466Z,13.30
2023-03-15T07:32:13.303Z,13.30
2023-03-15T07:34:40.163Z,13.30
2023-03-15T07:37:07.121Z,13.30
2023-03-15T07:39:33.824Z,13.30
2023-03-15T07:42:00.891Z,13.30
2023-03-15T07:44:27.680Z,13.30
2023-03-15T07:46:56.001Z,13.30
2023-03-15T07:49:23.132Z,13.30
2023-03-15T07:51:49.888Z,13.30
2023-03-15T07:54:16.699Z,13.30
2023-03-15T07:56:43.477Z,13.30
2023-03-15T07:59:10.431Z,13.30
2023-03-15T08:01:37.159Z,13.30
2023-03-15T08:04:03.952Z,13.30
2023-03-15T08:06:31.871Z,13.20
2023-03-15T08:08:58.620Z,13.30
2023-03-15T08:11:25.370Z,13.30
2023-03-15T08:13:52.139Z,13.30
2023-03-15T08:16:18.915Z,13.20
2023-03-15T08:18:45.650Z,13.20
2023-03-15T08:21:12.354Z,13.20
2023-03-15T08:23:39.075Z,13.20
2023-03-15T08:26:05.770Z,13.10
2023-03-15T08:28:32.536Z,13.00
2023-03-15T08:30:59.413Z,13.00
2023-03-15T08:33:30.171Z,13.00
2023-03-15T08:35:57.103Z,13.00
2023-03-15T08:38:23.799Z,13.00
2023-03-15T08:40:55.238Z,13.10
2023-03-15T08:43:21.989Z,13.00
2023-03-15T08:46:00.545Z,13.10
2023-03-15T08:48:28.377Z,13.10
2023-03-15T08:50:55.135Z,13.30
2023-03-15T08:53:21.982Z,13.40
2023-03-15T08:55:49.710Z,13.50
2023-03-15T08:58:16.494Z,13.50
2023-03-15T09:00:43.199Z,13.50
2023-03-15T09:03:10.260Z,13.60
2023-03-15T09:05:36.995Z,13.60
2023-03-15T09:08:04.351Z,13.70
2023-03-15T09:10:31.116Z,13.70
2023-03-15T09:12:57.853Z,13.70
2023-03-15T09:15:24.728Z,13.80
2023-03-15T09:17:51.897Z,13.80
2023-03-15T09:20:21.901Z,13.90
2023-03-15T09:22:52.648Z,13.90
2023-03-15T09:25:21.800Z,13.90
2023-03-15T09:27:48.617Z,13.90
2023-03-15T09:30:15.619Z,13.80
2023-03-15T09:32:43.746Z,14.00
2023-03-15T09:35:12.932Z,14.00
2023-03-15T09:37:39.915Z,13.90
2023-03-15T09:40:08.251Z,13.90
2023-03-15T09:42:37.753Z,13.90
2023-03-15T09:45:14.922Z,14.00
2023-03-15T09:47:41.638Z,14.00
2023-03-15T09:50:14.985Z,14.00
2023-03-15T09:52:47.083Z,14.10
2023-03-15T09:55:21.294Z,14.10
2023-03-15T09:57:56.919Z,14.10
2023-03-15T10:00:26.578Z,14.10
2023-03-15T10:02:59.483Z,14.10
2023-03-15T10:05:32.185Z,14.10
2023-03-15T10:07:58.909Z,14.00
2023-03-15T10:10:31.548Z,14.10
2023-03-15T10:13:05.952Z,14.00
2023-03-15T10:15:39.342Z,14.00
2023-03-15T10:18:28.015Z,14.00
2023-03-15T10:20:57.862Z,13.90
2023-03-15T10:23:39.402Z,14.00
2023-03-15T10:26:08.277Z,14.00
2023-03-15T10:28:37.654Z,13.80
2023-03-15T10:31:22.202Z,13.80
2023-03-15T10:33:57.087Z,13.80
2023-03-15T10:36:24.899Z,13.80
2023-03-15T10:38:51.844Z,13.70
2023-03-15T10:41:37.389Z,13.80
2023-03-15T10:44:05.564Z,13.80
2023-03-15T10:46:32.429Z,13.80
2023-03-15T10:49:00.295Z,13.70
2023-03-15T10:51:31.535Z,13.60
2023-03-15T10:54:04.733Z,13.60
2023-03-15T10:56:34.998Z,13.60
2023-03-15T10:59:12.346Z,13.70
2023-03-15T11:01:40.119Z,13.50
2023-03-15T11:04:07.409Z,13.50
2023-03-15T11:06:40.280Z,13.50
2023-03-15T11:09:11.617Z,13.50
2023-03-15T11:12:13.884Z,13.50
2023-03-15T11:14:42.334Z,13.70
2023-03-15T11:17:21.126Z,13.60
2023-03-15T11:19:58.035Z,13.50
2023-03-15T11:22:25.148Z,13.60
2023-03-15T11:24:54.504Z,13.60
2023-03-15T11:27:22.644Z,13.50
2023-03-15T11:29:55.133Z,13.50
2023-03-15T11:32:24.565Z,13.50
2023-03-15T11:35:26.993Z,13.50
2023-03-15T11:38:06.258Z,13.50
2023-03-15T11:40:42.371Z,13.50
2023-03-15T11:43:21.737Z,13.50
2023-03-15T11:45:56.274Z,13.50
2023-03-15T11:48:23.014Z,13.40
2023-03-15T11:50:52.624Z,13.50
2023-03-15T11:53:20.284Z,13.50
2023-03-15T11:55:53.577Z,13.40
2023-03-15T11:58:34.051Z,13.40
2023-03-15T12:01:02.327Z,13.50
2023-03-15T12:03:34.548Z,13.50
2023-03-15T12:06:01.346Z,13.30
2023-03-15T12:08:28.050Z,13.30
2023-03-15T12:10:54.908Z,13.40
2023-03-15T12:13:26.493Z,13.40
2023-03-15T12:15:53.388Z,13.50
2023-03-15T12:18:21.743Z,13.50
2023-03-15T12:21:05.015Z,13.40
2023-03-15T12:24:01.706Z,13.50
2023-03-15T12:26:34.488Z,13.60
2023-03-15T12:29:01.209Z,13.70
2023-03-15T12:31:43.256Z,13.60
2023-03-15T12:34:15.102Z,13.40
2023-03-15T12:36:45.445Z,13.50
2023-03-15T12:39:15.277Z,13.40
2023-03-15T12:41:43.719Z,13.40
2023-03-15T12:44:27.168Z,13.40
2023-03-15T12:46:54.476Z,13.40
2023-03-15T12:49:23.957Z,13.50
2023-03-15T12:52:10.988Z,13.40
2023-03-15T12:54:52.296Z,13.40
2023-03-15T12:57:29.829Z,13.40
2023-03-15T13:00:15.797Z,13.40
2023-03-15T13:02:46.947Z,13.50
2023-03-15T13:05:39.873Z,13.50
2023-03-15T13:08:17.717Z,13.50
2023-03-15T13:10:59.065Z,13.50
2023-03-15T13:13:33.041Z,13.60
2023-03-15T13:16:05.624Z,13.60
2023-03-15T13:18:34.524Z,13.50
2023-03-15T13:21:08.737Z,13.50
2023-03-15T13:23:35.738Z,13.50
2023-03-15T13:26:14.415Z,13.40
2023-03-15T13:28:46.626Z,13.50
2023-03-15T13:31:19.296Z,13.50
2023-03-15T13:33:50.148Z,13.50
2023-03-15T13:36:20.706Z,13.50
2023-03-15T13:38:51.288Z,13.50
2023-03-15T13:41:25.715Z,13.50
2023-03-15T13:43:54.247Z,13.50
2023-03-15T13:46:25.521Z,13.50
2023-03-15T13:48:53.318Z,13.50
2023-03-15T13:51:37.046Z,13.50
2023-03-15T13:54:05.718Z,13.50
2023-03-15T13:56:43.718Z,13.50
2023-03-15T13:59:14.146Z,13.50
2023-03-15T14:01:42.574Z,13.40
2023-03-15T14:04:12.939Z,13.70
2023-03-15T14:06:40.041Z,13.90
2023-03-15T14:09:09.402Z,14.20
2023-03-15T14:11:37.834Z,14.50
2023-03-15T14:14:27.613Z,14.80
2023-03-15T14:17:05.032Z,14.90
2023-03-15T14:19:34.140Z,14.90
2023-03-15T14:22:02.098Z,14.90
2023-03-15T14:24:41.627Z,15.00
2023-03-15T14:27:10.292Z,14.90
2023-03-15T14:29:38.153Z,14.90
2023-03-15T14:32:06.467Z,14.90
2023-03-15T14:34:46.670Z,14.90
2023-03-15T14:37:32.300Z,14.80
2023-03-15T14:40:25.474Z,14.90
2023-03-15T14:42:52.635Z,15.10
2023-03-15T14:45:22.137Z,15.00
2023-03-15T14:47:57.094Z,15.00
2023-03-15T14:50:25.947Z,14.90
2023-03-15T14:52:54.275Z,14.90
2023-03-15T14:55:27.620Z,14.90
2023-03-15T14:57:54.361Z,15.00
2023-03-15T15:00:21.316Z,14.90
2023-03-15T15:02:50.257Z,15.00
2023-03-15T15:05:46.428Z,14.90
2023-03-15T15:08:14.321Z,14.90
2023-03-15T15:10:41.808Z,15.00
2023-03-15T15:13:12.546Z,15.00
2023-03-15T15:15:54.142Z,15.10
2023-03-15T15:18:22.153Z,14.90
2023-03-15T15:20:51.526Z,14.80
2023-03-15T15:23:19.976Z,14.90
2023-03-15T15:25:48.126Z,15.00
2023-03-15T15:28:27.285Z,14.90
2023-03-15T15:31:00.179Z,14.90
2023-03-15T15:33:26.927Z,14.80
2023-03-15T15:35:55.101Z,14.80
2023-03-15T15:38:23.306Z,14.80
2023-03-15T15:40:50.089Z,14.80
2023-03-15T15:43:18.628Z,14.80
2023-03-15T15:45:45.415Z,14.70
2023-03-15T15:48:12.186Z,14.70
2023-03-15T15:50:38.904Z,14.70
2023-03-15T15:53:06.370Z,14.80
2023-03-15T15:55:36.854Z,14.80
2023-03-15T15:58:04.547Z,14.80
2023-03-15T16:00:31.576Z,14.50
2023-03-15T16:02:58.509Z,14.30
2023-03-15T16:05:26.639Z,14.20
2023-03-15T16:07:54.890Z,14.20
2023-03-15T16:10:23.486Z,14.10
2023-03-15T16:12:51.047Z,14.00
2023-03-15T16:15:18.244Z,14.00
2023-03-15T16:17:45.477Z,13.90
2023-03-15T16:20:12.991Z,13.90
2023-03-15T16:22:41.711Z,13.90
2023-03-15T16:25:10.730Z,13.80
2023-03-15T16:27:37.580Z,13.90
2023-03-15T16:30:04.931Z,13.90
2023-03-15T16:32:43.456Z,13.90
2023-03-15T16:35:15.612Z,13.80
2023-03-15T16:37:42.953Z,13.80
2023-03-15T16:40:14.844Z,13.80
2023-03-15T16:42:41.527Z,13.80
2023-03-15T16:45:12.603Z,13.70
2023-03-15T16:47:39.441Z,13.80
2023-03-15T16:50:06.239Z,13.70
2023-03-15T16:52:33.237Z,13.80
2023-03-15T16:55:00.827Z,13.70
2023-03-15T16:57:27.679Z,13.70
2023-03-15T16:59:54.432Z,13.70
2023-03-15T17:02:25.548Z,13.70
2023-03-15T17:04:54.975Z,13.70
2023-03-15T17:07:30.602Z,13.70
2023-03-15T17:09:57.576Z,13.60
2023-03-15T17:12:28.337Z,13.70
2023-03-15T17:14:56.511Z,13.70
2023-03-15T17:17:24.122Z,13.70
2023-03-15T17:19:52.683Z,13.60
2023-03-15T17:22:19.616Z,13.60
2023-03-15T17:24:48.187Z,13.70
2023-03-15T17:27:22.322Z,13.70
2023-03-15T17:29:49.355Z,13.60
2023-03-15T17:32:16.087Z,13.60
2023-03-15T17:34:47.149Z,13.60
2023-03-15T17:37:14.976Z,13.70
2023-03-15T17:39:42.109Z,13.60
2023-03-15T17:42:15.325Z,13.70
2023-03-15T17:44:42.261Z,13.60
2023-03-15T17:47:10.723Z,13.60
2023-03-15T17:49:37.780Z,13.60
2023-03-15T17:52:04.667Z,13.60
2023-03-15T17:54:32.814Z,13.60
2023-03-15T17:57:00.006Z,13.60
2023-03-15T17:59:26.751Z,13.60
2023-03-15T18:01:53.465Z,13.60
2023-03-15T18:04:20.797Z,13.60
2023-03-15T18:06:47.513Z,13.60
2023-03-15T18:09:15.432Z,13.60
2023-03-15T18:11:42.747Z,13.50
2023-03-15T18:14:13.734Z,13.50
2023-03-15T18:16:40.617Z,13.50
2023-03-15T18:19:07.528Z,13.50
2023-03-15T18:21:34.325Z,13.50
2023-03-15T18:24:01.141Z,13.50
2023-03-15T18:26:28.164Z,13.50
2023-03-15T18:28:54.875Z,13.50
2023-03-15T18:31:23.126Z,13.50
2023-03-15T18:33:50.478Z,13.50
2023-03-15T18:36:17.794Z,13.50
2023-03-15T18:38:45.032Z,13.50
2023-03-15T18:41:14.167Z,13.50
2023-03-15T18:43:41.034Z,13.50
2023-03-15T18:46:07.837Z,13.50
2023-03-15T18:48:40.778Z,13.50
2023-03-15T18:51:09.805Z,13.50
2023-03-15T18:53:36.652Z,13.50
2023-03-15T18:56:04.846Z,13.50
2023-03-15T18:58:32.308Z,13.50
2023-03-15T19:00:59.362Z,13.50
2023-03-15T19:03:26.112Z,13.40
2023-03-15T19:05:53.634Z,13.50
2023-03-15T19:08:20.574Z,13.50
2023-03-15T19:10:47.428Z,13.50
2023-03-15T19:13:14.165Z,13.40
2023-03-15T19:15:41.012Z,13.40
2023-03-15T19:18:07.799Z,13.40
2023-03-15T19:20:35.092Z,13.40
2023-03-15T19:23:01.937Z,13.40
2023-03-15T19:25:28.603Z,13.40
2023-03-15T19:27:55.648Z,13.40
2023-03-15T19:30:22.584Z,13.40
2023-03-15T19:32:50.584Z,13.40
2023-03-15T19:35:18.957Z,13.40
2023-03-15T19:37:46.012Z,13.40
2023-03-15T19:40:14.056Z,13.40
2023-03-15T19:42:41.089Z,13.40
2023-03-15T19:45:08.324Z,13.40
2023-03-15T19:47:35.116Z,13.40
2023-03-15T19:50:02.150Z,13.40
2023-03-15T19:52:29.400Z,13.40
2023-03-15T19:54:56.665Z,13.40
2023-03-15T19:57:23.482Z,13.40
2023-03-15T19:59:50.312Z,13.30
2023-03-15T20:02:17.052Z,13.40
2023-03-15T20:04:43.897Z,13.40
2023-03-15T20:07:11.261Z,13.40
2023-03-15T20:09:38.987Z,13.30
2023-03-15T20:12:06.186Z,13.30
2023-03-15T20:14:33.186Z,13.40
2023-03-15T20:16:59.976Z,13.40
2023-03-15T20:19:26.858Z,13.40
2023-03-15T20:21:53.729Z,13.30
2023-03-15T20:24:20.492Z,13.40
2023-03-15T20:26:47.195Z,13.40
2023-03-15T20:29:13.960Z,13.40
2023-03-15T20:31:40.746Z,13.40
2023-03-15T20:34:09.239Z,13.40
2023-03-15T20:36:36.318Z,13.40
2023-03-15T20:39:05.427Z,13.40
2023-03-15T20:41:33.282Z,13.40
2023-03-15T20:44:00.127Z,13.40
2023-03-15T20:46:27.059Z,13.30
2023-03-15T20:48:53.771Z,13.40
2023-03-15T20:51:21.135Z,13.40
2023-03-15T20:53:48.201Z,13.40
2023-03-15T20:56:15.182Z,13.40
2023-03-15T20:58:42.165Z,13.40
2023-03-15T21:01:10.103Z,13.40
2023-03-15T21:03:36.879Z,13.40
2023-03-15T21:06:04.659Z,13.40
2023-03-15T21:08:31.848Z,13.30
2023-03-15T21:10:58.598Z,13.30
2023-03-15T21:13:25.441Z,13.30
2023-03-15T21:15:53.307Z,13.30
2023-03-15T21:18:21.888Z,13.30
2023-03-15T21:20:55.654Z,13.40
2023-03-15T21:23:22.396Z,13.30
2023-03-15T21:25:55.701Z,13.30
2023-03-15T21:28:23.029Z,13.30
2023-03-15T21:30:53.093Z,13.30
2023-03-15T21:33:20.425Z,13.30
2023-03-15T21:35:47.360Z,13.30
2023-03-15T21:38:14.420Z,13.30
2023-03-15T21:40:44.818Z,13.30
2023-03-15T21:43:11.813Z,13.30
2023-03-15T21:45:38.626Z,13.30
2023-03-15T21:48:05.933Z,13.30
2023-03-15T21:50:32.743Z,13.30
2023-03-15T21:52:59.464Z,13.30
2023-03-15T21:55:26.326Z,13.30
2023-03-15T21:57:53.118Z,13.30
2023-03-15T22:00:20.564Z,13.30
2023-03-15T22:02:47.497Z,13.20
2023-03-15T22:05:14.253Z,13.30
2023-03-15T22:07:41.460Z,13.30
2023-03-15T22:10:09.966Z,13.30
2023-03-15T22:12:37.128Z,13.30
2023-03-15T22:15:05.852Z,13.20
2023-03-15T22:17:33.759Z,13.20
2023-03-15T22:20:00.509Z,13.20
2023-03-15T22:22:27.439Z,13.20
2023-03-15T22:24:54.297Z,13.20
2023-03-15T22:27:20.999Z,13.20
2023-03-15T22:29:47.724Z,13.30
2023-03-15T22:32:14.581Z,13.30
2023-03-15T22:34:41.337Z,13.30
2023-03-15T22:37:08.087Z,13.20
2023-03-15T22:39:35.447Z,13.30
2023-03-15T22:42:02.203Z,13.20
2023-03-15T22:44:30.459Z,13.20
2023-03-15T22:46:57.479Z,13.20
2023-03-15T22:49:24.237Z,13.20
2023-03-15T22:51:50.934Z,13.20
2023-03-15T22:54:17.777Z,13.20
2023-03-15T22:56:44.576Z,13.20
2023-03-15T22:59:11.344Z,13.20
2023-03-15T23:01:38.121Z,13.20
2023-03-15T23:04:04.993Z,13.20
2023-03-15T23:06:31.825Z,13.20
2023-03-15T23:08:58.618Z,13.20
2023-03-15T23:11:25.437Z,13.20
2023-03-15T23:13:52.744Z,13.20
2023-03-15T23:16:19.625Z,13.20
2023-03-15T23:18:46.426Z,13.20
2023-03-15T23:21:14.565Z,13.20
2023-03-15T23:23:43.141Z,13.20
2023-03-15T23:26:09.850Z,13.20
2023-03-15T23:28:36.531Z,13.20
2023-03-15T23:31:04.448Z,13.20
2023-03-15T23:33:34.147Z,13.20
2023-03-15T23:36:01.458Z,13.20
2023-03-15T23:38:28.290Z,13.20
2023-03-15T23:40:59.110Z,13.20
2023-03-15T23:43:25.844Z,13.20
2023-03-15T23:45:56.795Z,13.20
2023-03-15T23:48:23.575Z,13.20
2023-03-15T23:50:54.242Z,13.20
2023-03-15T23:53:21.552Z,13.20
2023-03-15T23:55:48.681Z,13.20
2023-03-15T23:58:15.582Z,13.20
